Time;durP1;ratioP1;P1;durP2;ratioP2;P2;SDS_P1;SDS_P2;PMS_P1;PMS_P2;Temp;Humidity;BMP_temperature;BMP_pressure;BME280_temperature;BME280_humidity;BME280_pressure;Samples;Min_cycle;Max_cycle;Signal;HPM_P1;HPM_P2
2021/07/03 00:01:37;;;;;;;;;;;16.90;99.90;;;;;;5099095;28;19924;-73
2021/07/03 00:04:04;;;;;;;;;;;16.90;99.90;;;;;;5098848;28;20363;-74
2021/07/03 00:06:31;;;;;;;;;;;16.90;99.90;;;;;;5098730;28;19948;-74
2021/07/03 00:08:59;;;;;;;;;;;16.90;99.90;;;;;;5098785;28;19924;-74
2021/07/03 00:11:26;;;;;;;;;;;16.90;99.90;;;;;;5098664;28;19993;-73
2021/07/03 00:13:53;;;;;;;;;;;16.80;99.90;;;;;;5098653;28;20263;-73
2021/07/03 00:16:19;;;;;;;;;;;16.90;99.90;;;;;;5098729;28;19925;-73
2021/07/03 00:18:46;;;;;;;;;;;16.80;99.90;;;;;;5098596;28;20370;-73
2021/07/03 00:21:13;;;;;;;;;;;16.80;99.90;;;;;;5098557;28;19924;-74
2021/07/03 00:23:40;;;;;;;;;;;16.80;99.90;;;;;;5098454;28;19925;-73
2021/07/03 00:26:08;;;;;;;;;;;16.80;99.90;;;;;;5098661;28;19924;-73
2021/07/03 00:28:36;;;;;;;;;;;16.80;99.90;;;;;;5098416;28;19924;-73
2021/07/03 00:31:02;;;;;;;;;;;16.80;99.90;;;;;;5098620;28;19940;-74
2021/07/03 00:33:29;;;;;;;;;;;16.80;99.90;;;;;;5098440;28;19935;-74
2021/07/03 00:35:56;;;;;;;;;;;16.80;99.90;;;;;;5098202;28;19993;-74
2021/07/03 00:38:23;;;;;;;;;;;16.80;99.90;;;;;;5098210;28;19925;-74
2021/07/03 00:40:50;;;;;;;;;;;16.80;99.90;;;;;;5098136;28;19972;-73
2021/07/03 00:43:18;;;;;;;;;;;16.90;99.90;;;;;;5098076;28;20244;-74
2021/07/03 00:45:45;;;;;;;;;;;16.80;99.90;;;;;;5098205;28;19924;-74
2021/07/03 00:48:12;;;;;;;;;;;16.90;99.90;;;;;;5098031;28;19924;-74
2021/07/03 00:50:39;;;;;;;;;;;16.90;99.90;;;;;;5098009;28;19924;-74
2021/07/03 00:53:06;;;;;;;;;;;16.90;99.90;;;;;;5097937;28;19928;-74
2021/07/03 00:55:33;;;;;;;;;;;16.90;99.90;;;;;;5097874;28;19924;-74
2021/07/03 00:57:59;;;;;;;;;;;16.90;99.90;;;;;;5098045;28;20024;-74
2021/07/03 01:00:28;;;;;;;;;;;16.90;99.90;;;;;;5097705;28;20275;-74
2021/07/03 01:02:54;;;;;;;;;;;16.80;99.90;;;;;;5097880;28;19971;-73
2021/07/03 01:05:21;;;;;;;;;;;16.80;99.90;;;;;;5097839;28;19924;-74
2021/07/03 01:07:48;;;;;;;;;;;16.80;99.90;;;;;;5097552;28;19928;-74
2021/07/03 01:10:19;;;;;;;;;;;16.80;99.90;;;;;;5096637;28;20244;-73
2021/07/03 01:12:46;;;;;;;;;;;16.80;99.90;;;;;;5097528;28;19935;-74
2021/07/03 01:15:13;;;;;;;;;;;16.80;99.90;;;;;;5097502;28;20378;-73
2021/07/03 01:17:41;;;;;;;;;;;16.80;99.90;;;;;;5097176;28;20360;-74
2021/07/03 01:20:09;;;;;;;;;;;16.80;99.90;;;;;;5097429;28;19934;-74
2021/07/03 01:22:37;;;;;;;;;;;16.80;99.90;;;;;;5097458;28;20371;-74
2021/07/03 01:25:04;;;;;;;;;;;16.90;99.90;;;;;;5097340;28;19928;-73
2021/07/03 01:27:31;;;;;;;;;;;16.90;99.90;;;;;;5097237;28;20328;-74
2021/07/03 01:29:58;;;;;;;;;;;16.90;99.90;;;;;;5097400;28;19924;-73
2021/07/03 01:32:25;;;;;;;;;;;16.90;99.90;;;;;;5097144;28;20348;-73
2021/07/03 01:34:52;;;;;;;;;;;16.90;99.90;;;;;;5097028;28;19924;-73
2021/07/03 01:37:19;;;;;;;;;;;16.90;99.90;;;;;;5097291;28;20336;-73
2021/07/03 01:39:48;;;;;;;;;;;16.90;99.90;;;;;;5097127;28;19924;-73
2021/07/03 01:42:15;;;;;;;;;;;16.80;99.90;;;;;;5096968;28;20348;-73
2021/07/03 01:44:44;;;;;;;;;;;16.90;99.90;;;;;;5096948;28;20340;-74
2021/07/03 01:47:11;;;;;;;;;;;16.80;99.90;;;;;;5096689;28;20260;-73
2021/07/03 01:49:38;;;;;;;;;;;16.80;99.90;;;;;;5096916;28;19924;-73
2021/07/03 01:52:05;;;;;;;;;;;16.80;99.90;;;;;;5097070;28;20016;-73
2021/07/03 01:54:32;;;;;;;;;;;16.80;99.90;;;;;;5097016;28;20245;-74
2021/07/03 01:57:00;;;;;;;;;;;16.80;99.90;;;;;;5096665;28;19938;-74
2021/07/03 01:59:27;;;;;;;;;;;16.80;99.90;;;;;;5096718;28;19938;-73
2021/07/03 02:01:54;;;;;;;;;;;16.80;99.90;;;;;;5096637;28;20015;-74
2021/07/03 02:04:21;;;;;;;;;;;16.80;99.90;;;;;;5096531;28;19924;-74
2021/07/03 02:06:48;;;;;;;;;;;16.80;99.90;;;;;;5096413;28;19941;-73
2021/07/03 02:09:14;;;;;;;;;;;16.80;99.90;;;;;;5096712;28;19924;-74
2021/07/03 02:11:41;;;;;;;;;;;16.80;99.90;;;;;;5096691;28;19924;-73
2021/07/03 02:14:10;;;;;;;;;;;16.80;99.90;;;;;;5096455;28;19924;-73
2021/07/03 02:16:37;;;;;;;;;;;16.80;99.90;;;;;;5096164;28;19931;-73
2021/07/03 02:19:04;;;;;;;;;;;16.80;99.90;;;;;;5096520;28;20045;-73
2021/07/03 02:21:30;;;;;;;;;;;16.80;99.90;;;;;;5096299;28;19935;-74
2021/07/03 02:23:58;;;;;;;;;;;16.70;99.90;;;;;;5096436;28;19928;-74
2021/07/03 02:26:24;;;;;;;;;;;16.70;99.90;;;;;;5096207;28;19924;-73
2021/07/03 02:28:51;;;;;;;;;;;16.70;99.90;;;;;;5096230;28;19924;-74
2021/07/03 02:31:20;;;;;;;;;;;16.70;99.90;;;;;;5095986;28;19930;-74
2021/07/03 02:33:47;;;;;;;;;;;16.70;99.90;;;;;;5096439;28;19928;-74
2021/07/03 02:36:14;;;;;;;;;;;16.70;99.90;;;;;;5095954;28;19924;-74
2021/07/03 02:38:41;;;;;;;;;;;16.70;99.90;;;;;;5096037;28;20014;-74
2021/07/03 02:41:08;;;;;;;;;;;16.70;99.90;;;;;;5096141;28;19924;-74
2021/07/03 02:43:35;;;;;;;;;;;16.70;99.90;;;;;;5095953;28;19966;-74
2021/07/03 02:46:02;;;;;;;;;;;16.70;99.90;;;;;;5095758;28;19924;-74
2021/07/03 02:48:30;;;;;;;;;;;16.70;99.90;;;;;;5095878;28;19924;-74
2021/07/03 02:50:57;;;;;;;;;;;16.70;99.90;;;;;;5095432;28;19928;-74
2021/07/03 02:53:24;;;;;;;;;;;16.70;99.90;;;;;;5095777;28;19934;-74
2021/07/03 02:55:51;;;;;;;;;;;16.70;99.90;;;;;;5095829;28;19923;-74
2021/07/03 02:58:18;;;;;;;;;;;16.60;99.90;;;;;;5095605;28;19936;-74
2021/07/03 03:00:44;;;;;;;;;;;16.60;99.90;;;;;;5095747;28;19936;-74
2021/07/03 03:03:11;;;;;;;;;;;16.60;99.90;;;;;;5095638;28;19971;-74
2021/07/03 03:05:39;;;;;;;;;;;16.60;99.90;;;;;;5095640;28;19932;-74
2021/07/03 03:08:06;;;;;;;;;;;16.60;99.90;;;;;;5095581;28;19930;-74
2021/07/03 03:10:33;;;;;;;;;;;16.60;99.90;;;;;;5095356;28;19924;-74
2021/07/03 03:13:00;;;;;;;;;;;16.60;99.90;;;;;;5095381;28;19924;-73
2021/07/03 03:15:27;;;;;;;;;;;16.60;99.90;;;;;;5095631;28;19924;-74
2021/07/03 03:17:54;;;;;;;;;;;16.60;99.90;;;;;;5095163;28;19985;-74
2021/07/03 03:20:21;;;;;;;;;;;16.50;99.90;;;;;;5095394;28;19924;-74
2021/07/03 03:22:49;;;;;;;;;;;16.60;99.90;;;;;;5095475;28;20347;-74
2021/07/03 03:25:16;;;;;;;;;;;16.60;99.90;;;;;;5095331;28;19934;-74
2021/07/03 03:27:42;;;;;;;;;;;16.50;99.90;;;;;;5095360;28;19924;-74
2021/07/03 03:30:13;;;;;;;;;;;16.50;99.90;;;;;;5095498;28;19930;-74
2021/07/03 03:32:40;;;;;;;;;;;16.60;99.90;;;;;;5094657;28;19932;-74
2021/07/03 03:35:07;;;;;;;;;;;16.50;99.90;;;;;;5095131;28;20253;-74
2021/07/03 03:37:34;;;;;;;;;;;16.50;99.90;;;;;;5095072;28;19927;-74
2021/07/03 03:40:02;;;;;;;;;;;16.50;99.90;;;;;;5095105;28;20264;-74
2021/07/03 03:42:29;;;;;;;;;;;16.50;99.90;;;;;;5095074;28;19934;-74
2021/07/03 03:44:56;;;;;;;;;;;16.50;99.90;;;;;;5095300;28;19924;-74
2021/07/03 03:47:23;;;;;;;;;;;16.50;99.90;;;;;;5094763;28;19924;-74
2021/07/03 03:49:50;;;;;;;;;;;16.50;99.90;;;;;;5095231;28;19932;-74
2021/07/03 03:52:16;;;;;;;;;;;16.50;99.90;;;;;;5095212;28;19924;-73
2021/07/03 03:54:43;;;;;;;;;;;16.50;99.90;;;;;;5094997;28;20253;-74
2021/07/03 03:57:24;;;;;;;;;;;16.50;99.90;;;;;;5094984;28;19934;-74
2021/07/03 03:59:51;;;;;;;;;;;16.50;99.90;;;;;;5094996;28;19934;-74
2021/07/03 04:02:18;;;;;;;;;;;16.50;99.90;;;;;;5094851;28;19928;-74
2021/07/03 04:04:45;;;;;;;;;;;16.50;99.90;;;;;;5095044;28;19924;-74
2021/07/03 04:07:12;;;;;;;;;;;16.50;99.90;;;;;;5094689;28;19932;-74
2021/07/03 04:09:39;;;;;;;;;;;16.50;99.90;;;;;;5094875;28;19928;-73
2021/07/03 04:12:06;;;;;;;;;;;16.50;99.90;;;;;;5094970;28;19932;-74
2021/07/03 04:14:34;;;;;;;;;;;16.50;99.90;;;;;;5094725;28;20295;-74
2021/07/03 04:17:01;;;;;;;;;;;16.50;99.90;;;;;;5094736;28;19924;-73
2021/07/03 04:19:28;;;;;;;;;;;16.50;99.90;;;;;;5094854;28;20274;-74
2021/07/03 04:21:55;;;;;;;;;;;16.50;99.90;;;;;;5094799;28;19931;-73
2021/07/03 04:24:22;;;;;;;;;;;16.50;99.90;;;;;;5094696;28;19924;-74
2021/07/03 04:26:49;;;;;;;;;;;16.40;99.90;;;;;;5094612;28;19924;-74
2021/07/03 04:29:16;;;;;;;;;;;16.50;99.90;;;;;;5094867;28;19924;-74
2021/07/03 04:31:44;;;;;;;;;;;16.50;99.90;;;;;;5094686;28;19924;-73
2021/07/03 04:34:11;;;;;;;;;;;16.50;99.90;;;;;;5094653;28;20276;-73
2021/07/03 04:36:38;;;;;;;;;;;16.50;99.90;;;;;;5094697;28;19928;-74
2021/07/03 04:39:05;;;;;;;;;;;16.50;99.90;;;;;;5094743;28;19924;-74
2021/07/03 04:41:32;;;;;;;;;;;16.60;99.90;;;;;;5094568;28;19999;-73
2021/07/03 04:43:59;;;;;;;;;;;16.50;99.90;;;;;;5095179;28;20322;-73
2021/07/03 04:46:26;;;;;;;;;;;16.60;99.90;;;;;;5097929;28;19974;-74
2021/07/03 04:48:54;;;;;;;;;;;16.60;99.90;;;;;;5098112;28;19924;-74
2021/07/03 04:51:21;;;;;;;;;;;16.60;99.90;;;;;;5097933;28;20262;-74
2021/07/03 04:53:48;;;;;;;;;;;16.60;99.90;;;;;;5098233;28;19924;-73
2021/07/03 04:56:17;;;;;;;;;;;16.60;99.90;;;;;;5098212;28;19924;-73
2021/07/03 04:58:43;;;;;;;;;;;16.60;99.90;;;;;;5098044;28;20023;-73
2021/07/03 05:01:10;;;;;;;;;;;16.60;99.90;;;;;;5097885;28;19942;-71
2021/07/03 05:03:37;;;;;;;;;;;16.70;99.90;;;;;;5097823;28;19935;-72
2021/07/03 05:06:05;;;;;;;;;;;16.70;99.90;;;;;;5097596;28;20259;-72
2021/07/03 05:08:32;;;;;;;;;;;16.70;99.90;;;;;;5097756;28;19924;-72
2021/07/03 05:10:59;;;;;;;;;;;16.70;99.90;;;;;;5097821;28;19940;-72
2021/07/03 05:13:26;;;;;;;;;;;16.70;99.90;;;;;;5097774;28;19942;-72
2021/07/03 05:15:53;;;;;;;;;;;16.70;99.90;;;;;;5097600;28;20254;-72
2021/07/03 05:18:20;;;;;;;;;;;16.70;99.90;;;;;;5097464;28;19924;-72
2021/07/03 05:20:46;;;;;;;;;;;16.70;99.90;;;;;;5097612;28;19970;-71
2021/07/03 05:23:15;;;;;;;;;;;16.70;99.90;;;;;;5097416;28;19924;-72
2021/07/03 05:25:44;;;;;;;;;;;16.70;99.90;;;;;;5097645;28;19931;-71
2021/07/03 05:28:11;;;;;;;;;;;16.70;99.90;;;;;;5097609;28;19935;-72
2021/07/03 05:30:37;;;;;;;;;;;16.70;99.90;;;;;;5097253;28;19924;-71
2021/07/03 05:33:04;;;;;;;;;;;16.60;99.90;;;;;;5097131;28;19928;-72
2021/07/03 05:35:31;;;;;;;;;;;16.60;99.90;;;;;;5097354;28;19934;-71
2021/07/03 05:37:58;;;;;;;;;;;16.50;99.90;;;;;;5097383;28;19928;-72
2021/07/03 05:40:27;;;;;;;;;;;16.50;99.90;;;;;;5097070;28;19959;-72
2021/07/03 05:42:53;;;;;;;;;;;16.50;99.90;;;;;;5096816;28;20021;-72
2021/07/03 05:45:20;;;;;;;;;;;16.50;99.90;;;;;;5096737;28;19924;-71
2021/07/03 05:47:51;;;;;;;;;;;16.40;99.90;;;;;;5096636;28;19928;-71
2021/07/03 05:50:18;;;;;;;;;;;16.40;99.90;;;;;;5096993;28;20027;-71
2021/07/03 05:52:45;;;;;;;;;;;16.40;99.90;;;;;;5096877;28;19924;-72
2021/07/03 05:55:12;;;;;;;;;;;16.40;99.90;;;;;;5096464;28;19924;-71
2021/07/03 05:57:41;;;;;;;;;;;16.40;99.90;;;;;;5096678;28;19924;-71
2021/07/03 06:00:08;;;;;;;;;;;16.50;99.90;;;;;;5096777;28;20359;-71
2021/07/03 06:02:35;;;;;;;;;;;16.50;99.90;;;;;;5096586;28;19928;-72
2021/07/03 06:05:02;;;;;;;;;;;16.50;99.90;;;;;;5096786;28;19924;-72
2021/07/03 06:07:28;;;;;;;;;;;16.50;99.90;;;;;;5096255;28;19938;-71
2021/07/03 06:09:55;;;;;;;;;;;16.50;99.90;;;;;;5096569;28;19934;-71
2021/07/03 06:12:22;;;;;;;;;;;16.50;99.90;;;;;;5096413;28;20356;-71
2021/07/03 06:14:50;;;;;;;;;;;16.50;99.90;;;;;;5096378;28;19928;-72
2021/07/03 06:17:17;;;;;;;;;;;16.60;99.90;;;;;;5096239;28;19981;-71
2021/07/03 06:19:44;;;;;;;;;;;16.60;99.90;;;;;;5096553;28;19924;-71
2021/07/03 06:22:12;;;;;;;;;;;16.60;99.90;;;;;;5096354;28;19924;-71
2021/07/03 06:24:39;;;;;;;;;;;16.70;99.90;;;;;;5096334;28;19936;-70
2021/07/03 06:27:06;;;;;;;;;;;16.70;99.90;;;;;;5096256;28;19934;-70
2021/07/03 06:29:34;;;;;;;;;;;16.70;99.90;;;;;;5096159;28;19924;-71
2021/07/03 06:32:02;;;;;;;;;;;16.70;99.90;;;;;;5096442;28;19931;-71
2021/07/03 06:34:29;;;;;;;;;;;16.70;99.90;;;;;;5095996;28;19928;-71
2021/07/03 06:36:56;;;;;;;;;;;16.60;99.90;;;;;;5095956;28;20020;-71
2021/07/03 06:39:23;;;;;;;;;;;16.60;99.90;;;;;;5095989;28;19924;-71
2021/07/03 06:41:50;;;;;;;;;;;16.60;99.90;;;;;;5095946;28;19967;-71
2021/07/03 06:44:17;;;;;;;;;;;16.50;99.90;;;;;;5095883;28;19924;-70
2021/07/03 06:46:45;;;;;;;;;;;16.40;99.90;;;;;;5095738;28;19964;-70
2021/07/03 06:49:14;;;;;;;;;;;16.40;99.90;;;;;;5095765;28;19924;-70
2021/07/03 06:51:40;;;;;;;;;;;16.40;99.90;;;;;;5095717;28;20367;-70
2021/07/03 06:54:07;;;;;;;;;;;16.40;99.90;;;;;;5095803;28;19924;-70
2021/07/03 06:56:34;;;;;;;;;;;16.40;99.90;;;;;;5095579;28;19928;-70
2021/07/03 06:59:01;;;;;;;;;;;16.40;99.90;;;;;;5095496;28;19934;-70
2021/07/03 07:01:28;;;;;;;;;;;16.40;99.90;;;;;;5095252;28;19934;-70
2021/07/03 07:03:55;;;;;;;;;;;16.40;99.90;;;;;;5095703;28;19935;-70
2021/07/03 07:06:23;;;;;;;;;;;16.30;99.90;;;;;;5094778;28;20248;-70
2021/07/03 07:08:50;;;;;;;;;;;16.30;99.90;;;;;;5095174;28;19928;-70
2021/07/03 07:11:17;;;;;;;;;;;16.30;99.90;;;;;;5095376;28;19931;-70
2021/07/03 07:13:44;;;;;;;;;;;16.30;99.90;;;;;;5095371;28;19924;-70
2021/07/03 07:16:11;;;;;;;;;;;16.30;99.90;;;;;;5095444;28;19924;-70
2021/07/03 07:18:37;;;;;;;;;;;16.30;99.90;;;;;;5095048;28;19924;-70
2021/07/03 07:21:04;;;;;;;;;;;16.30;99.90;;;;;;5095117;28;19928;-69
2021/07/03 07:23:33;;;;;;;;;;;16.30;99.90;;;;;;5095241;28;19924;-70
2021/07/03 07:25:59;;;;;;;;;;;16.20;99.90;;;;;;5095256;28;19928;-70
2021/07/03 07:28:26;;;;;;;;;;;16.20;99.90;;;;;;5095358;28;19924;-70
2021/07/03 07:30:53;;;;;;;;;;;16.20;99.90;;;;;;5095163;28;19924;-70
2021/07/03 07:33:20;;;;;;;;;;;16.10;99.90;;;;;;5095216;28;19928;-70
2021/07/03 07:35:47;;;;;;;;;;;16.10;99.90;;;;;;5095161;28;19924;-70
2021/07/03 07:38:14;;;;;;;;;;;16.20;99.90;;;;;;5095242;28;19930;-70
2021/07/03 07:40:42;;;;;;;;;;;16.20;99.90;;;;;;5095073;28;19925;-71
2021/07/03 07:43:09;;;;;;;;;;;16.20;99.90;;;;;;5095090;28;19924;-71
2021/07/03 07:45:36;;;;;;;;;;;16.20;99.90;;;;;;5095061;28;19924;-71
2021/07/03 07:48:03;;;;;;;;;;;16.20;99.90;;;;;;5094870;28;19934;-71
2021/07/03 07:50:30;;;;;;;;;;;16.30;99.90;;;;;;5094928;28;20019;-71
2021/07/03 07:52:57;;;;;;;;;;;16.30;99.90;;;;;;5094945;28;19923;-72
2021/07/03 07:55:24;;;;;;;;;;;16.30;99.90;;;;;;5094895;28;19924;-72
2021/07/03 07:57:52;;;;;;;;;;;16.30;99.90;;;;;;5095076;28;19927;-72
2021/07/03 08:00:21;;;;;;;;;;;16.30;99.90;;;;;;5094952;28;19946;-72
2021/07/03 08:02:48;;;;;;;;;;;16.30;99.90;;;;;;5094982;28;19924;-72
2021/07/03 08:05:15;;;;;;;;;;;16.30;99.90;;;;;;5094950;28;19924;-72
2021/07/03 08:07:42;;;;;;;;;;;16.30;99.90;;;;;;5094487;28;19924;-72
2021/07/03 08:10:10;;;;;;;;;;;16.40;99.90;;;;;;5095092;28;19924;-72
2021/07/03 08:12:36;;;;;;;;;;;16.40;99.90;;;;;;5094768;28;20001;-72
2021/07/03 08:15:05;;;;;;;;;;;16.50;99.90;;;;;;5095039;28;19971;-72
2021/07/03 08:17:32;;;;;;;;;;;16.40;99.90;;;;;;5094570;28;20267;-71
2021/07/03 08:19:59;;;;;;;;;;;16.50;99.90;;;;;;5098579;28;19935;-71
2021/07/03 08:22:26;;;;;;;;;;;16.40;99.90;;;;;;5098496;28;19924;-71
2021/07/03 08:24:53;;;;;;;;;;;16.40;99.90;;;;;;5098539;28;19931;-71
2021/07/03 08:27:20;;;;;;;;;;;16.40;99.90;;;;;;5098562;28;19924;-71
2021/07/03 08:29:46;;;;;;;;;;;16.40;99.90;;;;;;5098435;28;19924;-71
2021/07/03 08:32:15;;;;;;;;;;;16.40;99.90;;;;;;5098507;28;19944;-71
2021/07/03 08:34:41;;;;;;;;;;;16.40;99.90;;;;;;5098517;28;19924;-72
2021/07/03 08:37:08;;;;;;;;;;;16.40;99.90;;;;;;5098550;28;19924;-72
2021/07/03 08:39:35;;;;;;;;;;;16.30;99.90;;;;;;5098244;28;19935;-72
2021/07/03 08:42:02;;;;;;;;;;;16.30;99.90;;;;;;5098479;28;19924;-72
2021/07/03 08:44:29;;;;;;;;;;;16.30;99.90;;;;;;5098356;28;19950;-72
2021/07/03 08:46:56;;;;;;;;;;;16.20;99.90;;;;;;5097875;28;20362;-72
2021/07/03 08:49:24;;;;;;;;;;;16.20;99.90;;;;;;5097991;28;19924;-72
2021/07/03 08:51:52;;;;;;;;;;;16.30;99.90;;;;;;5097927;28;19939;-73
2021/07/03 08:54:19;;;;;;;;;;;16.30;99.90;;;;;;5098039;28;19960;-73
2021/07/03 08:56:47;;;;;;;;;;;16.30;99.90;;;;;;5098227;28;19924;-73
2021/07/03 08:59:15;;;;;;;;;;;16.30;99.90;;;;;;5098021;28;20406;-73
2021/07/03 09:01:51;;;;;;;;;;;16.30;99.90;;;;;;5098030;28;19931;-72
2021/07/03 09:04:18;;;;;;;;;;;16.30;99.90;;;;;;5097731;28;20026;-72
2021/07/03 09:06:46;;;;;;;;;;;16.40;99.90;;;;;;5097621;28;20026;-72
2021/07/03 09:09:13;;;;;;;;;;;16.40;99.90;;;;;;5097912;28;19934;-72
2021/07/03 09:11:40;;;;;;;;;;;16.40;99.90;;;;;;5097778;28;19934;-73
2021/07/03 09:14:07;;;;;;;;;;;16.50;99.90;;;;;;5097728;28;19924;-73
2021/07/03 09:16:34;;;;;;;;;;;16.60;99.90;;;;;;5097407;28;20360;-74
2021/07/03 09:19:02;;;;;;;;;;;16.60;99.90;;;;;;5097727;28;19934;-72
2021/07/03 09:21:28;;;;;;;;;;;16.60;99.90;;;;;;5097407;28;19924;-72
2021/07/03 09:23:57;;;;;;;;;;;16.60;99.90;;;;;;5097646;28;20284;-72
2021/07/03 09:26:24;;;;;;;;;;;16.60;99.90;;;;;;5097339;28;19924;-72
2021/07/03 09:28:50;;;;;;;;;;;16.60;99.90;;;;;;5097273;28;20005;-73
2021/07/03 09:31:18;;;;;;;;;;;16.60;99.90;;;;;;5096567;28;19924;-73
2021/07/03 09:33:45;;;;;;;;;;;16.60;99.90;;;;;;5097388;28;20005;-73
2021/07/03 09:36:13;;;;;;;;;;;16.50;99.90;;;;;;5097255;28;19976;-73
2021/07/03 09:38:40;;;;;;;;;;;16.50;99.90;;;;;;5097135;28;20348;-74
2021/07/03 09:41:09;;;;;;;;;;;16.50;99.90;;;;;;5097143;28;19925;-74
2021/07/03 09:43:36;;;;;;;;;;;16.50;99.90;;;;;;5097026;28;20019;-74
2021/07/03 09:46:03;;;;;;;;;;;16.50;99.90;;;;;;5096920;28;19924;-74
2021/07/03 09:48:30;;;;;;;;;;;16.50;99.90;;;;;;5096829;28;20270;-73
2021/07/03 09:50:57;;;;;;;;;;;16.40;99.90;;;;;;5096878;28;19924;-73
2021/07/03 09:53:23;;;;;;;;;;;16.40;99.90;;;;;;5096901;28;19931;-74
2021/07/03 09:55:50;;;;;;;;;;;16.40;99.90;;;;;;5096918;28;19934;-73
2021/07/03 09:58:18;;;;;;;;;;;16.40;99.90;;;;;;5096843;28;19946;-73
2021/07/03 10:00:45;;;;;;;;;;;16.40;99.90;;;;;;5096734;28;20263;-73
2021/07/03 10:03:12;;;;;;;;;;;16.40;99.90;;;;;;5096932;28;19924;-73
2021/07/03 10:05:39;;;;;;;;;;;16.40;99.90;;;;;;5096803;28;19934;-73
2021/07/03 10:08:07;;;;;;;;;;;16.40;99.90;;;;;;5096506;28;19924;-73
2021/07/03 10:10:34;;;;;;;;;;;16.30;99.90;;;;;;5096512;28;20382;-74
2021/07/03 10:13:02;;;;;;;;;;;16.30;99.90;;;;;;5096441;28;19931;-73
2021/07/03 10:15:31;;;;;;;;;;;16.20;99.90;;;;;;5096386;28;19979;-73
2021/07/03 10:18:08;;;;;;;;;;;16.20;99.90;;;;;;5096276;28;19924;-74
2021/07/03 10:20:34;;;;;;;;;;;16.20;99.90;;;;;;5096645;28;19938;-73
2021/07/03 10:23:01;;;;;;;;;;;16.20;99.90;;;;;;5096315;28;19947;-73
2021/07/03 10:25:31;;;;;;;;;;;16.20;99.90;;;;;;5096212;28;20360;-73
2021/07/03 10:27:59;;;;;;;;;;;16.20;99.90;;;;;;5096153;28;20275;-73
2021/07/03 10:30:26;;;;;;;;;;;16.20;99.90;;;;;;5096426;28;19924;-73
2021/07/03 10:32:57;;;;;;;;;;;16.30;99.90;;;;;;5096078;28;19927;-73
2021/07/03 10:35:24;;;;;;;;;;;16.30;99.90;;;;;;5096346;28;19924;-73
2021/07/03 10:37:52;;;;;;;;;;;16.30;99.90;;;;;;5096026;28;19930;-73
2021/07/03 10:40:19;;;;;;;;;;;16.30;99.90;;;;;;5095923;28;19979;-73
2021/07/03 10:42:46;;;;;;;;;;;16.40;99.90;;;;;;5095941;28;19935;-73
2021/07/03 10:45:13;;;;;;;;;;;16.40;99.90;;;;;;5095921;28;20262;-73
2021/07/03 10:47:40;;;;;;;;;;;16.50;99.90;;;;;;5095701;28;20015;-73
2021/07/03 10:50:19;;;;;;;;;;;16.50;99.90;;;;;;5095678;28;19923;-73
2021/07/03 10:52:46;;;;;;;;;;;16.50;99.90;;;;;;5095958;28;19924;-73
2021/07/03 10:55:12;;;;;;;;;;;16.60;99.90;;;;;;5095770;28;19928;-73
2021/07/03 10:57:44;;;;;;;;;;;16.70;99.90;;;;;;5095640;28;19928;-73
2021/07/03 11:00:11;;;;;;;;;;;16.80;99.90;;;;;;5095566;28;19934;-73
2021/07/03 11:02:38;;;;;;;;;;;16.90;99.90;;;;;;5095760;28;19989;-73
2021/07/03 11:05:10;;;;;;;;;;;17.00;99.90;;;;;;5095776;28;19924;-73
2021/07/03 11:07:39;;;;;;;;;;;17.00;99.90;;;;;;5095249;28;19981;-73
2021/07/03 11:10:10;;;;;;;;;;;17.00;99.90;;;;;;5094981;28;20225;-73
2021/07/03 11:12:49;;;;;;;;;;;17.00;99.90;;;;;;5095617;28;19924;-73
2021/07/03 11:15:16;;;;;;;;;;;17.00;99.90;;;;;;5095589;28;20263;-73
2021/07/03 11:17:43;;;;;;;;;;;17.00;99.90;;;;;;5095251;28;20326;-73
2021/07/03 11:20:10;;;;;;;;;;;17.00;99.90;;;;;;5095311;28;19924;-73
2021/07/03 11:22:44;;;;;;;;;;;17.00;99.90;;;;;;5095325;28;20256;-73
2021/07/03 11:25:11;;;;;;;;;;;17.00;99.90;;;;;;5095776;28;20249;-73
2021/07/03 11:27:40;;;;;;;;;;;17.00;99.90;;;;;;5094381;28;20041;-73
2021/07/03 11:30:08;;;;;;;;;;;17.00;99.90;;;;;;5095341;28;19924;-72
2021/07/03 11:32:35;;;;;;;;;;;16.90;99.90;;;;;;5095352;28;20263;-72
2021/07/03 11:35:02;;;;;;;;;;;16.90;99.90;;;;;;5095262;28;19930;-72
2021/07/03 11:37:32;;;;;;;;;;;16.90;99.90;;;;;;5095288;28;19924;-73
2021/07/03 11:40:01;;;;;;;;;;;17.00;99.90;;;;;;5095138;28;19939;-72
2021/07/03 11:42:28;;;;;;;;;;;17.00;99.90;;;;;;5095197;28;19946;-73
2021/07/03 11:44:55;;;;;;;;;;;17.00;99.90;;;;;;5095241;28;19967;-74
2021/07/03 11:47:32;;;;;;;;;;;17.10;99.90;;;;;;5094866;28;19930;-74
2021/07/03 11:49:58;;;;;;;;;;;17.10;99.90;;;;;;5095004;28;19924;-73
2021/07/03 11:52:25;;;;;;;;;;;17.10;99.90;;;;;;5095183;28;19924;-74
2021/07/03 11:55:03;;;;;;;;;;;17.10;99.90;;;;;;5098801;28;19956;-74
2021/07/03 11:57:37;;;;;;;;;;;17.10;99.90;;;;;;5099348;28;19924;-74
2021/07/03 12:00:04;;;;;;;;;;;17.10;99.90;;;;;;5099198;28;19928;-74
2021/07/03 12:02:31;;;;;;;;;;;17.10;99.90;;;;;;5099014;28;20019;-74
2021/07/03 12:04:58;;;;;;;;;;;17.20;99.90;;;;;;5099222;28;19924;-73
2021/07/03 12:07:25;;;;;;;;;;;17.30;99.90;;;;;;5098810;28;19924;-74
2021/07/03 12:09:52;;;;;;;;;;;17.30;99.90;;;;;;5098787;28;20233;-74
2021/07/03 12:12:20;;;;;;;;;;;17.40;99.90;;;;;;5098636;28;19924;-74
2021/07/03 12:14:47;;;;;;;;;;;17.40;99.90;;;;;;5098857;28;19924;-74
2021/07/03 12:17:18;;;;;;;;;;;17.50;99.90;;;;;;5098933;28;19938;-74
2021/07/03 12:19:45;;;;;;;;;;;17.50;99.90;;;;;;5098742;28;19982;-74
2021/07/03 12:22:13;;;;;;;;;;;17.50;99.90;;;;;;5098827;28;19924;-74
2021/07/03 12:24:40;;;;;;;;;;;17.60;99.90;;;;;;5098745;28;19967;-74
2021/07/03 12:27:07;;;;;;;;;;;17.60;99.90;;;;;;5095724;28;20351;-74
2021/07/03 12:29:36;;;;;;;;;;;17.70;99.90;;;;;;5094354;28;19943;-74
2021/07/03 12:32:07;;;;;;;;;;;17.70;99.90;;;;;;5097604;28;19993;-74
2021/07/03 12:34:35;;;;;;;;;;;17.70;99.90;;;;;;5097252;28;19939;-74
2021/07/03 12:37:03;;;;;;;;;;;17.80;99.90;;;;;;5098266;28;19924;-74
2021/07/03 12:39:30;;;;;;;;;;;17.80;99.90;;;;;;5097815;28;19924;-74
2021/07/03 12:41:57;;;;;;;;;;;17.80;99.90;;;;;;5098209;28;20038;-74
2021/07/03 12:44:31;;;;;;;;;;;17.70;99.90;;;;;;5098484;28;19967;-77
2021/07/03 12:46:59;;;;;;;;;;;17.70;99.90;;;;;;5098284;28;19924;-74
2021/07/03 12:49:31;;;;;;;;;;;17.70;99.90;;;;;;5098316;28;19924;-74
2021/07/03 12:51:58;;;;;;;;;;;17.70;99.90;;;;;;5098073;28;20348;-74
2021/07/03 12:54:25;;;;;;;;;;;17.70;99.90;;;;;;5097931;28;19930;-73
2021/07/03 12:56:53;;;;;;;;;;;17.70;99.90;;;;;;5098039;28;19924;-73
2021/07/03 12:59:20;;;;;;;;;;;17.70;99.90;;;;;;5098169;28;19924;-73
2021/07/03 13:01:47;;;;;;;;;;;17.70;99.90;;;;;;5097540;28;19950;-74
2021/07/03 13:04:15;;;;;;;;;;;17.60;99.90;;;;;;5096975;28;19928;-73
2021/07/03 13:06:42;;;;;;;;;;;17.60;99.90;;;;;;5097036;28;20271;-73
2021/07/03 13:09:09;;;;;;;;;;;17.60;99.90;;;;;;5097779;28;19935;-73
2021/07/03 13:11:36;;;;;;;;;;;17.50;99.90;;;;;;5097701;28;19924;-73
2021/07/03 13:14:02;;;;;;;;;;;17.50;99.90;;;;;;5097756;28;19934;-74
2021/07/03 13:16:29;;;;;;;;;;;17.40;99.90;;;;;;5097032;28;19924;-73
2021/07/03 13:18:56;;;;;;;;;;;17.30;99.90;;;;;;5097570;28;19924;-73
2021/07/03 13:21:24;;;;;;;;;;;17.30;99.90;;;;;;5097448;28;20417;-73
2021/07/03 13:23:51;;;;;;;;;;;17.20;99.90;;;;;;5097721;28;19924;-73
2021/07/03 13:26:18;;;;;;;;;;;17.20;99.90;;;;;;5097400;28;20371;-73
2021/07/03 13:28:45;;;;;;;;;;;17.20;99.90;;;;;;5097318;28;19924;-73
2021/07/03 13:31:12;;;;;;;;;;;17.10;99.90;;;;;;5097479;28;20233;-74
2021/07/03 13:33:39;;;;;;;;;;;17.20;99.90;;;;;;5097212;28;20023;-73
2021/07/03 13:36:06;;;;;;;;;;;17.10;99.90;;;;;;5097221;28;19993;-74
2021/07/03 13:38:34;;;;;;;;;;;17.10;99.90;;;;;;5097140;28;19924;-73
2021/07/03 13:41:03;;;;;;;;;;;17.10;99.90;;;;;;5094303;28;19930;-73
2021/07/03 13:43:30;;;;;;;;;;;17.10;99.90;;;;;;5092086;28;19932;-73
2021/07/03 13:45:57;;;;;;;;;;;17.20;99.90;;;;;;5095542;28;20304;-73
2021/07/03 13:48:24;;;;;;;;;;;17.20;99.90;;;;;;5096859;28;19997;-73
2021/07/03 13:50:51;;;;;;;;;;;17.20;99.90;;;;;;5096764;28;20348;-73
2021/07/03 13:53:18;;;;;;;;;;;17.20;99.90;;;;;;5097132;28;19934;-73
2021/07/03 13:55:46;;;;;;;;;;;17.20;99.90;;;;;;5096831;28;20263;-73
2021/07/03 13:58:15;;;;;;;;;;;17.20;99.90;;;;;;5096982;28;20234;-73
2021/07/03 14:00:42;;;;;;;;;;;17.30;99.90;;;;;;5096771;28;20352;-73
2021/07/03 14:03:09;;;;;;;;;;;17.40;99.90;;;;;;5096698;28;20340;-73
2021/07/03 14:05:36;;;;;;;;;;;17.50;99.90;;;;;;5096647;28;19924;-73
2021/07/03 14:08:03;;;;;;;;;;;17.50;99.90;;;;;;5096162;28;19955;-73
2021/07/03 14:10:33;;;;;;;;;;;17.50;99.90;;;;;;5096699;28;19934;-73
2021/07/03 14:13:02;;;;;;;;;;;17.50;99.90;;;;;;5096640;28;20336;-73
2021/07/03 14:15:29;;;;;;;;;;;17.60;99.90;;;;;;5096329;28;20358;-73
2021/07/03 14:17:56;;;;;;;;;;;17.70;99.90;;;;;;5096105;28;19932;-73